createdAt,value
2022-08-25T00:01:58.388Z,31.45
2022-08-25T00:04:25.599Z,31.47
2022-08-25T00:06:53.547Z,31.38
2022-08-25T00:09:24.152Z,31.70
2022-08-25T00:11:51.853Z,31.55
2022-08-25T00:14:24.189Z,31.58
2022-08-25T00:16:50.754Z,31.64
2022-08-25T00:19:26.782Z,31.66
2022-08-25T00:21:55.723Z,31.65
2022-08-25T00:24:22.485Z,31.90
2022-08-25T00:26:52.839Z,31.81
2022-08-25T00:29:19.656Z,31.81
2022-08-25T00:31:47.638Z,31.66
2022-08-25T00:34:18.562Z,32.33
2022-08-25T00:36:45.408Z,32.10
2022-08-25T00:39:12.204Z,32.41
2022-08-25T00:41:42.266Z,32.23
2022-08-25T00:44:11.911Z,32.34
2022-08-25T00:46:43.102Z,32.60
2022-08-25T00:49:16.408Z,33.04
2022-08-25T00:52:00.345Z,32.86
2022-08-25T00:54:32.106Z,32.62
2022-08-25T00:57:00.243Z,32.47
2022-08-25T00:59:28.005Z,32.66
2022-08-25T01:01:55.251Z,32.57
2022-08-25T01:04:22.584Z,32.66
2022-08-25T01:06:49.638Z,32.42
2022-08-25T01:09:17.623Z,32.67
2022-08-25T01:11:45.827Z,32.59
2022-08-25T01:14:16.130Z,32.65
2022-08-25T01:16:43.938Z,32.54
2022-08-25T01:19:15.530Z,32.71
2022-08-25T01:21:48.836Z,32.72
2022-08-25T01:24:40.024Z,32.64
2022-08-25T01:27:07.905Z,32.59
2022-08-25T01:29:36.115Z,32.61
2022-08-25T01:32:07.211Z,33.10
2022-08-25T01:34:37.125Z,32.84
2022-08-25T01:37:05.347Z,32.88
2022-08-25T01:39:38.962Z,32.74
2022-08-25T01:42:28.415Z,32.69
2022-08-25T01:44:55.289Z,32.45
2022-08-25T01:47:21.909Z,32.71
2022-08-25T01:49:48.624Z,32.83
2022-08-25T01:52:24.283Z,33.20
2022-08-25T01:54:51.172Z,32.80
2022-08-25T01:57:17.903Z,33.24
2022-08-25T01:59:45.088Z,33.08
2022-08-25T02:02:12.102Z,33.24
2022-08-25T02:04:39.530Z,33.24
2022-08-25T02:07:09.110Z,33.37
2022-08-25T02:09:37.501Z,33.02
2022-08-25T02:12:04.324Z,33.55
2022-08-25T02:14:31.025Z,33.39
2022-08-25T02:16:57.734Z,33.52
2022-08-25T02:19:25.922Z,33.46
2022-08-25T02:21:53.556Z,33.65
2022-08-25T02:24:20.190Z,33.43
2022-08-25T02:26:46.841Z,34.04
2022-08-25T02:29:13.754Z,34.14
2022-08-25T02:31:40.345Z,34.06
2022-08-25T02:34:08.723Z,33.87
2022-08-25T02:36:35.883Z,33.90
2022-08-25T02:39:03.184Z,34.00
2022-08-25T02:41:31.784Z,34.35
2022-08-25T02:43:59.878Z,34.18
2022-08-25T02:46:27.241Z,33.88
2022-08-25T02:48:55.269Z,34.35
2022-08-25T02:51:23.704Z,34.24
2022-08-25T02:53:50.472Z,34.40
2022-08-25T02:56:19.139Z,34.58
2022-08-25T02:58:47.453Z,34.34
2022-08-25T03:01:15.238Z,34.43
2022-08-25T03:03:44.541Z,34.40
2022-08-25T03:06:14.740Z,34.97
2022-08-25T03:08:42.417Z,34.96
2022-08-25T03:11:09.655Z,34.71
2022-08-25T03:13:36.323Z,34.52
2022-08-25T03:16:04.547Z,34.91
2022-08-25T03:18:31.389Z,34.75
2022-08-25T03:20:59.109Z,34.81
2022-08-25T03:23:25.922Z,34.90
2022-08-25T03:26:15.976Z,35.35
2022-08-25T03:28:42.688Z,35.16
2022-08-25T03:31:09.463Z,35.19
2022-08-25T03:33:38.352Z,35.10
2022-08-25T03:36:06.670Z,35.34
2022-08-25T03:38:33.405Z,35.54
2022-08-25T03:41:00.035Z,35.82
2022-08-25T03:43:26.518Z,35.74
2022-08-25T03:45:53.274Z,35.85
2022-08-25T03:48:20.003Z,35.86
2022-08-25T03:50:51.206Z,35.93
2022-08-25T03:53:19.024Z,35.96
2022-08-25T03:55:45.736Z,36.04
2022-08-25T03:58:12.405Z,35.95
2022-08-25T04:00:39.377Z,35.99
2022-08-25T04:03:06.205Z,36.34
2022-08-25T04:05:32.943Z,36.19
2022-08-25T04:08:01.747Z,36.03
2022-08-25T04:10:28.865Z,36.37
2022-08-25T04:12:55.996Z,36.31
2022-08-25T04:15:22.914Z,36.50
2022-08-25T04:17:50.529Z,36.64
2022-08-25T04:20:19.038Z,36.71
2022-08-25T04:22:45.716Z,36.54
2022-08-25T04:25:12.812Z,36.78
2022-08-25T04:27:40.148Z,36.60
2022-08-25T04:30:07.119Z,36.91
2022-08-25T04:32:36.244Z,36.79
2022-08-25T04:35:04.293Z,36.69
2022-08-25T04:37:31.099Z,36.67
2022-08-25T04:39:57.654Z,36.81
2022-08-25T04:42:26.332Z,36.69
2022-08-25T04:44:52.874Z,37.03
2022-08-25T04:47:19.349Z,37.00
2022-08-25T04:49:45.917Z,36.94
2022-08-25T04:52:13.147Z,37.18
2022-08-25T04:54:41.269Z,37.06
2022-08-25T04:57:07.911Z,37.33
2022-08-25T04:59:34.463Z,37.37
2022-08-25T05:02:05.610Z,37.43
2022-08-25T05:04:35.071Z,37.44
2022-08-25T05:07:02.037Z,37.47
2022-08-25T05:09:29.204Z,37.89
2022-08-25T05:11:59.832Z,37.70
2022-08-25T05:14:26.846Z,38.07
2022-08-25T05:16:57.987Z,38.32
2022-08-25T05:19:25.303Z,38.21
2022-08-25T05:21:52.477Z,38.06
2022-08-25T05:24:19.608Z,38.11
2022-08-25T05:26:46.278Z,37.78
2022-08-25T05:29:13.258Z,38.05
2022-08-25T05:31:43.926Z,37.79
2022-08-25T05:34:12.562Z,37.44
2022-08-25T05:36:43.249Z,37.21
2022-08-25T05:39:10.612Z,37.21
2022-08-25T05:41:37.255Z,36.89
2022-08-25T05:44:04.142Z,37.17
2022-08-25T05:46:31.873Z,37.20
2022-08-25T05:48:59.165Z,36.99
2022-08-25T05:51:26.625Z,37.52
2022-08-25T05:53:53.296Z,37.47
2022-08-25T05:56:20.112Z,37.74
2022-08-25T05:58:47.058Z,37.85
2022-08-25T06:01:45.504Z,37.99
2022-08-25T06:04:13.459Z,37.86
2022-08-25T06:06:40.411Z,37.67
2022-08-25T06:09:08.842Z,37.77
2022-08-25T06:11:36.228Z,37.14
2022-08-25T06:14:03.078Z,37.51
2022-08-25T06:16:29.637Z,37.50
2022-08-25T06:18:56.343Z,37.63
2022-08-25T06:21:22.874Z,37.54
2022-08-25T06:23:50.317Z,37.69
2022-08-25T06:26:20.947Z,37.94
2022-08-25T06:28:49.128Z,37.96
2022-08-25T06:31:15.737Z,37.96
2022-08-25T06:33:42.399Z,38.09
2022-08-25T06:36:08.988Z,38.11
2022-08-25T06:38:36.091Z,37.97
2022-08-25T06:41:08.338Z,38.60
2022-08-25T06:43:35.015Z,38.24
2022-08-25T06:46:12.652Z,38.02
2022-08-25T06:48:39.432Z,38.09
2022-08-25T06:51:13.872Z,38.01
2022-08-25T06:53:41.595Z,37.48
2022-08-25T06:56:08.501Z,37.52
2022-08-25T06:58:35.388Z,37.20
2022-08-25T07:01:28.240Z,37.19
2022-08-25T07:04:00.603Z,37.18
2022-08-25T07:06:29.487Z,37.33
2022-08-25T07:08:55.982Z,36.92
2022-08-25T07:11:22.590Z,36.77
2022-08-25T07:13:50.511Z,36.96
2022-08-25T07:16:19.182Z,36.94
2022-08-25T07:18:47.313Z,37.04
2022-08-25T07:21:14.847Z,36.79
2022-08-25T07:23:41.953Z,36.74
2022-08-25T07:26:36.389Z,37.05
2022-08-25T07:29:01.830Z,36.96
2022-08-25T07:31:30.278Z,36.61
2022-08-25T07:34:16.369Z,36.35
2022-08-25T07:36:43.511Z,36.48
2022-08-25T07:39:10.263Z,36.68
2022-08-25T07:41:39.513Z,36.82
2022-08-25T07:44:06.846Z,37.16
2022-08-25T07:46:35.203Z,36.49
2022-08-25T07:49:16.299Z,36.53
2022-08-25T07:52:03.254Z,35.78
2022-08-25T07:54:40.000Z,34.30
2022-08-25T07:57:09.174Z,33.45
2022-08-25T07:59:40.474Z,32.45
2022-08-25T08:02:17.784Z,31.55
2022-08-25T08:04:48.474Z,31.19
2022-08-25T08:07:41.954Z,30.47
2022-08-25T08:10:42.452Z,30.27
2022-08-25T08:12:58.662Z,29.58
2022-08-25T08:15:25.269Z,28.97
2022-08-25T08:17:56.323Z,29.06
2022-08-25T08:20:24.888Z,28.02
2022-08-25T08:22:51.544Z,27.63
2022-08-25T08:25:18.745Z,27.50
2022-08-25T08:27:48.832Z,26.91
2022-08-25T08:30:15.523Z,27.30
2022-08-25T08:33:08.726Z,27.18
2022-08-25T08:35:28.611Z,26.28
2022-08-25T08:37:55.088Z,26.20
2022-08-25T08:40:21.946Z,26.02
2022-08-25T08:43:02.497Z,25.72
2022-08-25T08:45:35.540Z,25.46
2022-08-25T08:48:33.115Z,26.37
2022-08-25T08:51:15.062Z,26.35
2022-08-25T08:53:57.125Z,25.80
2022-08-25T08:56:30.746Z,26.32
2022-08-25T08:59:09.939Z,25.87
2022-08-25T09:01:53.238Z,26.43
2022-08-25T09:04:29.582Z,26.40
2022-08-25T09:06:59.892Z,26.89
2022-08-25T09:09:35.727Z,26.25
2022-08-25T09:12:33.526Z,26.84
2022-08-25T09:15:12.835Z,27.30
2022-08-25T09:17:54.776Z,26.70
2022-08-25T09:20:39.141Z,27.10
2022-08-25T09:23:30.410Z,26.95
2022-08-25T09:26:30.894Z,27.24
2022-08-25T09:29:21.339Z,27.43
2022-08-25T09:31:48.534Z,27.24
2022-08-25T09:34:22.260Z,26.72
2022-08-25T09:36:52.815Z,26.88
2022-08-25T09:39:21.072Z,27.14
2022-08-25T09:41:56.016Z,26.68
2022-08-25T09:44:43.920Z,27.03
2022-08-25T09:47:22.368Z,27.44
2022-08-25T09:50:01.177Z,26.94
2022-08-25T09:52:41.459Z,26.60
2022-08-25T09:55:08.367Z,26.52
2022-08-25T09:57:45.960Z,27.19
2022-08-25T10:00:18.857Z,27.27
2022-08-25T10:03:00.830Z,26.79
2022-08-25T10:05:35.444Z,26.84
2022-08-25T10:08:11.537Z,26.24
2022-08-25T10:10:46.219Z,26.82
2022-08-25T10:13:22.617Z,25.87
2022-08-25T10:16:05.452Z,25.82
2022-08-25T10:19:01.235Z,25.75
2022-08-25T10:21:28.163Z,26.40
2022-08-25T10:23:57.501Z,26.14
2022-08-25T10:26:39.336Z,25.63
2022-08-25T10:29:27.462Z,25.01
2022-08-25T10:31:56.007Z,25.29
2022-08-25T10:34:45.288Z,25.37
2022-08-25T10:37:38.651Z,25.64
2022-08-25T10:40:32.420Z,26.18
2022-08-25T10:43:07.913Z,24.67
2022-08-25T10:45:52.544Z,25.36
2022-08-25T10:49:04.136Z,25.51
2022-08-25T10:51:40.948Z,25.03
2022-08-25T10:54:26.133Z,25.29
2022-08-25T10:56:53.166Z,25.04
2022-08-25T10:59:34.642Z,25.39
2022-08-25T11:02:22.628Z,25.34
2022-08-25T11:04:53.170Z,25.73
2022-08-25T11:07:33.443Z,24.81
2022-08-25T11:10:07.328Z,24.61
2022-08-25T11:12:38.416Z,24.37
2022-08-25T11:15:19.147Z,24.61
2022-08-25T11:17:53.884Z,24.52
2022-08-25T11:20:44.970Z,24.46
2022-08-25T11:23:20.193Z,24.50
2022-08-25T11:25:52.668Z,25.07
2022-08-25T11:28:39.451Z,25.07
2022-08-25T11:31:09.598Z,24.32
2022-08-25T11:33:36.498Z,24.97
2022-08-25T11:36:12.829Z,24.65
2022-08-25T11:38:51.574Z,24.79
2022-08-25T11:41:34.655Z,24.96
2022-08-25T11:44:13.270Z,24.79
2022-08-25T11:47:03.794Z,25.02
2022-08-25T11:49:50.492Z,24.73
2022-08-25T11:52:46.000Z,24.37
2022-08-25T11:55:17.932Z,24.47
2022-08-25T11:57:53.598Z,24.60
2022-08-25T12:00:20.383Z,24.33
2022-08-25T12:02:53.013Z,25.06
2022-08-25T12:05:19.858Z,24.45
2022-08-25T12:08:12.494Z,24.34
2022-08-25T12:10:54.030Z,24.36
2022-08-25T12:13:51.247Z,24.59
2022-08-25T12:16:36.213Z,24.26
2022-08-25T12:19:24.417Z,24.58
2022-08-25T12:21:52.116Z,24.28
2022-08-25T12:24:25.109Z,24.40
2022-08-25T12:26:58.139Z,24.18
2022-08-25T12:30:18.517Z,24.63
2022-08-25T12:33:14.313Z,24.82
2022-08-25T12:36:00.975Z,24.75
2022-08-25T12:38:42.580Z,24.37
2022-08-25T12:41:13.704Z,24.44
2022-08-25T12:44:15.815Z,24.86
2022-08-25T12:46:44.632Z,24.29
2022-08-25T12:49:34.485Z,24.49
2022-08-25T12:52:07.071Z,24.02
2022-08-25T12:54:42.123Z,23.82
2022-08-25T12:57:25.039Z,24.14
2022-08-25T12:59:59.346Z,23.61
2022-08-25T13:02:51.628Z,24.38
2022-08-25T13:05:21.863Z,24.10
2022-08-25T13:08:18.130Z,23.91
2022-08-25T13:11:00.698Z,23.65
2022-08-25T13:13:57.549Z,23.85
2022-08-25T13:16:29.666Z,23.83
2022-08-25T13:18:59.585Z,23.85
2022-08-25T13:21:42.609Z,23.98
2022-08-25T13:24:21.366Z,23.60
2022-08-25T13:26:55.338Z,23.17
2022-08-25T13:29:25.350Z,23.66
2022-08-25T13:32:01.991Z,23.10
2022-08-25T13:34:38.387Z,23.58
2022-08-25T13:37:29.521Z,23.22
2022-08-25T13:40:25.962Z,23.35
2022-08-25T13:43:02.836Z,23.34
2022-08-25T13:45:32.403Z,23.22
2022-08-25T13:47:58.949Z,23.61
2022-08-25T13:50:26.485Z,23.39
2022-08-25T13:53:04.949Z,23.97
2022-08-25T13:55:51.657Z,23.04
2022-08-25T13:58:38.990Z,23.13
2022-08-25T14:01:48.559Z,23.00
2022-08-25T14:04:27.601Z,23.17
2022-08-25T14:07:14.349Z,23.03
2022-08-25T14:09:48.897Z,23.09
2022-08-25T14:15:17.553Z,22.78
2022-08-25T14:17:48.692Z,22.13
2022-08-25T14:20:29.109Z,22.80
2022-08-25T14:22:59.359Z,22.17
2022-08-25T14:25:28.263Z,22.79
2022-08-25T14:28:16.367Z,22.40
2022-08-25T14:30:53.849Z,22.45
2022-08-25T14:33:27.660Z,22.43
2022-08-25T14:35:55.391Z,22.56
2022-08-25T14:38:22.923Z,22.31
2022-08-25T14:40:50.419Z,22.57
2022-08-25T14:43:17.392Z,22.29
2022-08-25T14:45:46.826Z,22.07
2022-08-25T14:48:26.880Z,22.63
2022-08-25T14:50:55.882Z,22.22
2022-08-25T14:53:22.397Z,22.04
2022-08-25T14:55:49.322Z,22.34
2022-08-25T14:58:18.508Z,22.15
2022-08-25T15:00:52.951Z,22.26
2022-08-25T15:03:37.655Z,22.36
2022-08-25T15:06:06.217Z,22.11
2022-08-25T15:08:51.250Z,22.10
2022-08-25T15:11:17.856Z,22.24
2022-08-25T15:13:49.347Z,21.96
2022-08-25T15:16:33.973Z,22.09
2022-08-25T15:19:06.522Z,22.16
2022-08-25T15:21:34.277Z,22.00
2022-08-25T15:24:02.555Z,22.04
2022-08-25T15:26:29.115Z,22.09
2022-08-25T15:28:55.678Z,22.14
2022-08-25T15:31:23.558Z,21.68
2022-08-25T15:33:50.255Z,21.62
2022-08-25T15:36:24.506Z,21.71
2022-08-25T15:38:52.608Z,21.87
2022-08-25T15:41:20.919Z,21.93
2022-08-25T15:43:51.623Z,21.92
2022-08-25T15:46:21.181Z,22.03
2022-08-25T15:48:47.734Z,22.29
2022-08-25T15:51:16.255Z,21.50
2022-08-25T15:53:42.956Z,21.50
2022-08-25T15:56:14.103Z,21.44
2022-08-25T15:58:49.771Z,21.99
2022-08-25T16:01:23.729Z,21.69
2022-08-25T16:03:51.988Z,21.98
2022-08-25T16:06:19.032Z,21.88
2022-08-25T16:08:45.952Z,21.81
2022-08-25T16:11:20.346Z,21.73
2022-08-25T16:13:48.927Z,21.77
2022-08-25T16:16:17.745Z,21.38
2022-08-25T16:18:45.083Z,21.64
2022-08-25T16:21:13.709Z,21.73
2022-08-25T16:23:41.122Z,21.44
2022-08-25T16:26:10.912Z,21.49
2022-08-25T16:28:43.650Z,21.63
2022-08-25T16:31:14.020Z,21.46
2022-08-25T16:36:14.585Z,22.11
2022-08-25T16:38:42.551Z,21.82
2022-08-25T16:41:22.474Z,21.55
2022-08-25T16:43:50.118Z,21.93
2022-08-25T16:46:19.156Z,22.59
2022-08-25T16:48:46.998Z,22.33
2022-08-25T16:51:16.127Z,22.08
2022-08-25T16:54:04.408Z,22.52
2022-08-25T16:56:35.076Z,22.15
2022-08-25T16:59:03.551Z,22.48
2022-08-25T17:01:36.461Z,22.88
2022-08-25T17:04:05.192Z,22.85
2022-08-25T17:06:37.159Z,22.71
2022-08-25T17:09:05.256Z,22.46
2022-08-25T17:11:35.938Z,22.17
2022-08-25T17:14:04.635Z,22.79
2022-08-25T17:16:37.896Z,22.67
2022-08-25T17:19:07.103Z,22.97
2022-08-25T17:21:40.595Z,22.98
2022-08-25T17:24:12.476Z,22.92
2022-08-25T17:26:41.556Z,22.84
2022-08-25T17:29:09.585Z,23.09
2022-08-25T17:31:40.123Z,22.81
2022-08-25T17:34:10.584Z,23.03
2022-08-25T17:36:38.246Z,23.08
2022-08-25T17:39:08.734Z,23.66
2022-08-25T17:41:37.589Z,23.63
2022-08-25T17:44:05.057Z,23.26
2022-08-25T17:46:32.166Z,23.15
2022-08-25T17:48:58.906Z,23.70
2022-08-25T17:54:07.464Z,23.54
2022-08-25T17:56:34.224Z,23.98
2022-08-25T17:59:02.052Z,23.59
2022-08-25T18:01:32.888Z,24.03
2022-08-25T18:03:59.718Z,23.79
2022-08-25T18:06:29.570Z,24.34
2022-08-25T18:08:59.939Z,23.95
2022-08-25T18:11:28.720Z,24.47
2022-08-25T18:13:56.757Z,24.68
2022-08-25T18:16:24.581Z,24.10
2022-08-25T18:18:52.894Z,24.13
2022-08-25T18:21:20.482Z,24.54
2022-08-25T18:23:47.767Z,24.63
2022-08-25T18:26:15.427Z,24.70
2022-08-25T18:28:43.922Z,24.79
2022-08-25T18:31:12.216Z,24.48
2022-08-25T18:33:44.395Z,25.00
2022-08-25T18:36:11.735Z,25.24
2022-08-25T18:38:58.137Z,25.05
2022-08-25T18:41:26.067Z,25.01
2022-08-25T18:43:53.043Z,25.01
2022-08-25T18:46:19.938Z,25.17
2022-08-25T18:48:49.591Z,25.37
2022-08-25T18:51:22.874Z,25.03
2022-08-25T18:53:50.999Z,25.29
2022-08-25T18:56:19.250Z,25.79
2022-08-25T18:58:47.164Z,25.94
2022-08-25T19:01:15.893Z,26.07
2022-08-25T19:03:43.389Z,25.89
2022-08-25T19:06:10.661Z,25.74
2022-08-25T19:08:39.515Z,25.96
2022-08-25T19:11:09.735Z,26.32
2022-08-25T19:13:37.151Z,26.36
2022-08-25T19:16:20.480Z,26.13
2022-08-25T19:18:48.673Z,26.40
2022-08-25T19:21:15.410Z,26.58
2022-08-25T19:23:41.918Z,26.90
2022-08-25T19:26:17.389Z,26.85
2022-08-25T19:28:48.571Z,26.95
2022-08-25T19:31:18.169Z,27.11
2022-08-25T19:33:46.019Z,27.25
2022-08-25T19:36:14.105Z,27.11
2022-08-25T19:38:41.601Z,27.67
2022-08-25T19:41:10.450Z,27.69
2022-08-25T19:43:55.482Z,27.54
2022-08-25T19:46:24.532Z,27.92
2022-08-25T19:48:51.094Z,27.75
2022-08-25T19:51:19.315Z,27.78
2022-08-25T19:53:52.302Z,27.90
2022-08-25T19:56:21.547Z,28.31
2022-08-25T19:58:48.059Z,28.59
2022-08-25T20:01:18.145Z,28.55
2022-08-25T20:03:45.149Z,28.65
2022-08-25T20:06:11.764Z,28.69
2022-08-25T20:08:42.988Z,28.80
2022-08-25T20:11:09.806Z,28.81
2022-08-25T20:13:37.007Z,29.22
2022-08-25T20:16:04.198Z,29.43
2022-08-25T20:18:32.751Z,29.32
2022-08-25T20:21:00.548Z,29.51
2022-08-25T20:23:46.075Z,29.38
2022-08-25T20:26:12.673Z,29.99
2022-08-25T20:28:42.105Z,29.97
2022-08-25T20:31:09.205Z,29.68
2022-08-25T20:33:36.038Z,29.72
2022-08-25T20:36:04.686Z,30.04
2022-08-25T20:38:32.071Z,30.01
2022-08-25T20:41:00.163Z,29.39
2022-08-25T20:43:29.545Z,30.23
2022-08-25T20:46:04.934Z,30.42
2022-08-25T20:48:31.814Z,30.47
2022-08-25T20:50:58.329Z,30.31
2022-08-25T20:53:25.953Z,30.45
2022-08-25T20:55:52.553Z,30.41
2022-08-25T20:58:20.346Z,30.81
2022-08-25T21:00:47.177Z,30.70
2022-08-25T21:03:14.870Z,31.06
2022-08-25T21:05:43.245Z,31.02
2022-08-25T21:08:10.476Z,29.87
2022-08-25T21:10:37.781Z,30.45
2022-08-25T21:13:04.328Z,31.25
2022-08-25T21:15:31.352Z,31.13
2022-08-25T21:17:57.978Z,31.17
2022-08-25T21:20:26.176Z,31.63
2022-08-25T21:22:53.428Z,31.58
2022-08-25T21:25:21.657Z,31.50
2022-08-25T21:27:48.227Z,31.50
2022-08-25T21:30:15.869Z,31.49
2022-08-25T21:32:53.528Z,31.79
2022-08-25T21:35:28.881Z,32.14
2022-08-25T21:37:55.772Z,31.77
2022-08-25T21:40:22.902Z,31.84
2022-08-25T21:42:49.861Z,31.88
2022-08-25T21:45:16.472Z,32.26
2022-08-25T21:47:47.672Z,32.01
2022-08-25T21:50:14.181Z,32.32
2022-08-25T21:52:41.223Z,32.68
2022-08-25T21:55:15.961Z,32.50
2022-08-25T21:57:43.829Z,32.52
2022-08-25T22:00:12.589Z,33.01
2022-08-25T22:02:39.195Z,32.92
2022-08-25T22:05:09.254Z,33.03
2022-08-25T22:07:41.652Z,32.51
2022-08-25T22:10:09.392Z,33.17
2022-08-25T22:12:43.909Z,33.31
2022-08-25T22:15:12.472Z,33.33
2022-08-25T22:17:40.469Z,33.11
2022-08-25T22:20:08.323Z,33.14
2022-08-25T22:22:35.917Z,33.78
2022-08-25T22:25:03.949Z,33.66
2022-08-25T22:27:32.942Z,33.52
2022-08-25T22:30:00.566Z,33.80
2022-08-25T22:32:27.125Z,33.86
2022-08-25T22:34:53.876Z,33.61
2022-08-25T22:37:20.407Z,33.92
2022-08-25T22:39:47.037Z,33.82
2022-08-25T22:42:13.936Z,34.11
2022-08-25T22:44:42.446Z,34.14
2022-08-25T22:47:10.593Z,34.17
2022-08-25T22:49:39.323Z,34.38
2022-08-25T22:52:07.253Z,34.59
2022-08-25T22:54:36.673Z,34.47
2022-08-25T22:57:06.653Z,34.45
2022-08-25T22:59:33.998Z,34.80
2022-08-25T23:02:00.702Z,34.85
2022-08-25T23:04:27.415Z,34.88
2022-08-25T23:06:54.004Z,35.07
2022-08-25T23:09:21.456Z,35.25
2022-08-25T23:11:51.279Z,35.43
2022-08-25T23:14:18.824Z,35.31
2022-08-25T23:16:45.410Z,35.23
2022-08-25T23:19:14.278Z,35.57
2022-08-25T23:22:01.849Z,35.90
2022-08-25T23:24:30.633Z,36.00
2022-08-25T23:27:02.268Z,36.11
2022-08-25T23:29:31.771Z,36.00
2022-08-25T23:31:58.762Z,36.07
2022-08-25T23:34:26.041Z,36.22
2022-08-25T23:36:53.063Z,35.97
2022-08-25T23:39:21.703Z,36.21
2022-08-25T23:41:49.074Z,36.37
2022-08-25T23:44:17.092Z,36.34
2022-08-25T23:46:45.277Z,36.50
2022-08-25T23:49:18.366Z,36.62
2022-08-25T23:51:47.081Z,36.65
2022-08-25T23:54:13.746Z,36.96
2022-08-25T23:56:44.521Z,36.69
2022-08-25T23:59:18.389Z,36.87
